Muson — UGLB — position and weather

sailwx.info

Track history (hours):
 
Tides and Currents Weather Stations Pressure Air Temp Water Temp Dewpoint Dewpoint Depression Visibility Wind Speed Wind Dir Waves Ship Positions

Muson

Last reported at 2016-Dec-09 22:33 UTC. Time now 2016-Dec-09 23:18 UTC.
Position N 59°55' E 030°13'.

Length 36 m; draft 4.5 m.

Type: Tug. MMSI: 273444990.

Date/timePositionNaut miles runAvg speedWind from/ knotsBaromVisibWave heightAir tempDewpointWater temp
2016-Dec-09 22:33N 59°55' E 030°13'2 2.2
2016-Dec-09 21:33N 59°53' E 030°11'0 0.0
2016-Dec-09 20:33N 59°53' E 030°11'0 0.4
2016-Dec-09 19:33N 59°52' E 030°12'2 2.4
2016-Dec-09 18:33N 59°55' E 030°14'0 0.0
2016-Dec-09 17:33N 59°55' E 030°14'0 0.0
2016-Dec-09 16:33N 59°55' E 030°14'0 0.0
2016-Dec-09 15:33N 59°55' E 030°14'0 0.0
2016-Dec-09 14:33N 59°55' E 030°14'0 0.0
2016-Dec-09 13:33N 59°55' E 030°14'0 0.0
2016-Dec-09 12:33N 59°55' E 030°14'0 0.0
2016-Dec-09 11:33N 59°55' E 030°14'0 0.0
2016-Dec-09 10:33N 59°55' E 030°14'0 0.0
2016-Dec-09 09:33N 59°55' E 030°14'0 0.0
2016-Dec-09 08:33N 59°55' E 030°14'0 0.0
2016-Dec-09 07:33N 59°55' E 030°14'0 0.0
2016-Dec-09 06:33N 59°55' E 030°14'0 0.0
2016-Dec-09 05:33N 59°55' E 030°14'0 0.0
2016-Dec-09 04:33N 59°55' E 030°14'0 0.0
2016-Dec-09 03:33N 59°55' E 030°14'0 0.0
2016-Dec-09 02:33N 59°55' E 030°14'0 0.0
2016-Dec-09 01:33N 59°55' E 030°14'0 0.0
2016-Dec-09 00:33N 59°55' E 030°14'0 0.0
2016-Dec-08 23:33N 59°55' E 030°14'0 0.0
2016-Dec-08 22:33N 59°55' E 030°14'0 0.0
2016-Dec-08 21:33N 59°55' E 030°14'0 0.0
2016-Dec-08 20:33N 59°55' E 030°14'0 0.0
2016-Dec-08 19:33N 59°55' E 030°14'0 0.0
2016-Dec-08 18:33N 59°55' E 030°14'0 0.0
2016-Dec-08 17:33N 59°55' E 030°14'0 0.0
2016-Dec-08 16:33N 59°55' E 030°14'0 0.0
2016-Dec-08 15:33N 59°55' E 030°14'0 0.0
2016-Dec-08 14:33N 59°55' E 030°14'4 4.4
2016-Dec-08 13:33N 59°54' E 030°05'1210.9
2016-Dec-08 12:29N 59°59' E 029°44'0 0.1
2016-Dec-08 11:28N 59°59' E 029°43'0 0.0
2016-Dec-08 10:23N 59°59' E 029°43'  
2016-Dec-03 16:07N 59°59' E 029°44'3 1.1
2016-Dec-03 13:27N 59°56' E 029°41'3 0.8
2016-Dec-03 09:27N 59°60' E 029°42'0 0.0
2016-Dec-03 08:26N 59°60' E 029°42'16 8.6
2016-Dec-03 06:33N 59°53' E 030°12'2 1.6
2016-Dec-03 05:34N 59°55' E 030°14'0 0.0
2016-Dec-03 04:34N 59°55' E 030°14'0 0.0
2016-Dec-03 03:34N 59°55' E 030°14'0 0.0
2016-Dec-03 02:33N 59°55' E 030°14'0 0.0
2016-Dec-03 01:33N 59°55' E 030°14'0 0.0
2016-Dec-03 00:34N 59°55' E 030°14'0 0.0
2016-Dec-02 23:33N 59°55' E 030°14'0 0.0
2016-Dec-02 22:33N 59°55' E 030°14'0 0.0
2016-Dec-02 21:33N 59°55' E 030°14'0 0.0
2016-Dec-02 20:33N 59°55' E 030°14'0 0.0
2016-Dec-02 19:33N 59°55' E 030°14'0 0.0
2016-Dec-02 18:33N 59°55' E 030°14'0 0.0
2016-Dec-02 17:33N 59°55' E 030°14'0 0.0
2016-Dec-02 16:34N 59°55' E 030°14'0 0.0
2016-Dec-02 15:34N 59°55' E 030°14'0 0.0
2016-Dec-02 14:33N 59°55' E 030°14'0 0.0
2016-Dec-02 13:33N 59°55' E 030°14'0 0.0
2016-Dec-02 12:33N 59°55' E 030°14'0 0.0
2016-Dec-02 11:33N 59°55' E 030°14'0 0.0
2016-Dec-02 10:13N 59°55' E 030°14'0 0.0
2016-Dec-02 08:04N 59°55' E 030°14'0 0.0
2016-Dec-02 07:33N 59°55' E 030°14'0 0.0
2016-Dec-02 06:33N 59°55' E 030°14'0 0.0
2016-Dec-02 05:33N 59°55' E 030°14'0 0.0
2016-Dec-02 04:33N 59°55' E 030°14'0 0.0
2016-Dec-02 03:33N 59°55' E 030°14'0 0.0
2016-Dec-02 02:33N 59°55' E 030°14'0 0.0
2016-Dec-02 01:33N 59°55' E 030°14'0 0.0
2016-Dec-02 00:33N 59°55' E 030°14'0 0.0
2016-Dec-01 23:33N 59°55' E 030°14'0 0.0
2016-Dec-01 22:33N 59°55' E 030°14'0 0.0
2016-Dec-01 21:33N 59°55' E 030°14'0 0.0
2016-Dec-01 20:33N 59°55' E 030°14'0 0.0
2016-Dec-01 19:33N 59°55' E 030°14'0 0.0
2016-Dec-01 18:33N 59°55' E 030°14'0 0.0
2016-Dec-01 17:33N 59°55' E 030°14'0 0.0
2016-Dec-01 16:33N 59°55' E 030°14'0 0.1
2016-Dec-01 15:33N 59°55' E 030°14'0 0.1
2016-Dec-01 14:33N 59°55' E 030°14'0 0.0
2016-Dec-01 13:33N 59°55' E 030°14'0 0.0
2016-Dec-01 12:33N 59°55' E 030°14'0 0.0
2016-Dec-01 11:33N 59°55' E 030°14'0 0.0
2016-Dec-01 10:33N 59°55' E 030°14'0 0.0
2016-Dec-01 09:33N 59°55' E 030°14'0 0.0
2016-Dec-01 08:33N 59°55' E 030°14'0 0.1
2016-Dec-01 07:33N 59°55' E 030°13'0 0.0
2016-Dec-01 06:33N 59°55' E 030°13'0 0.0
2016-Dec-01 05:33N 59°55' E 030°13'0 0.0
2016-Dec-01 04:33N 59°55' E 030°13'0 0.0
2016-Dec-01 03:33N 59°55' E 030°13'0 0.0
2016-Dec-01 02:33N 59°55' E 030°13'1 1.3
2016-Dec-01 01:34N 59°53' E 030°12'8 8.1
2016-Dec-01 00:33N 59°56' E 029°57'7 6.7
2016-Nov-30 23:31N 59°56' E 029°43'1 0.0
2016-Nov-30 08:31N 59°56' E 029°42'  
Track history (hours):
 
Tides and Currents Weather Stations Pressure Air Temp Water Temp Dewpoint Dewpoint Depression Visibility Wind Speed Wind Dir Waves Ship Positions

Muson

Last reported at 2016-Dec-09 22:33 UTC. Time now 2016-Dec-09 23:18 UTC.
Position N 59°55' E 030°13'.

Length 36 m; draft 4.5 m.

Type: Tug. MMSI: 273444990.

Date/timePositionNaut miles runAvg speedWind from/ knotsBaromVisibWave heightAir tempDewpointWater temp
2016-Dec-09 22:33N 59°55' E 030°13'2 2.2
2016-Dec-09 21:33N 59°53' E 030°11'0 0.0
2016-Dec-09 20:33N 59°53' E 030°11'0 0.4
2016-Dec-09 19:33N 59°52' E 030°12'2 2.4
2016-Dec-09 18:33N 59°55' E 030°14'0 0.0
2016-Dec-09 17:33N 59°55' E 030°14'0 0.0
2016-Dec-09 16:33N 59°55' E 030°14'0 0.0
2016-Dec-09 15:33N 59°55' E 030°14'0 0.0
2016-Dec-09 14:33N 59°55' E 030°14'0 0.0
2016-Dec-09 13:33N 59°55' E 030°14'0 0.0
2016-Dec-09 12:33N 59°55' E 030°14'0 0.0
2016-Dec-09 11:33N 59°55' E 030°14'0 0.0
2016-Dec-09 10:33N 59°55' E 030°14'0 0.0
2016-Dec-09 09:33N 59°55' E 030°14'0 0.0
2016-Dec-09 08:33N 59°55' E 030°14'0 0.0
2016-Dec-09 07:33N 59°55' E 030°14'0 0.0
2016-Dec-09 06:33N 59°55' E 030°14'0 0.0
2016-Dec-09 05:33N 59°55' E 030°14'0 0.0
2016-Dec-09 04:33N 59°55' E 030°14'0 0.0
2016-Dec-09 03:33N 59°55' E 030°14'0 0.0
2016-Dec-09 02:33N 59°55' E 030°14'0 0.0
2016-Dec-09 01:33N 59°55' E 030°14'0 0.0
2016-Dec-09 00:33N 59°55' E 030°14'0 0.0
2016-Dec-08 23:33N 59°55' E 030°14'0 0.0
2016-Dec-08 22:33N 59°55' E 030°14'0 0.0
2016-Dec-08 21:33N 59°55' E 030°14'0 0.0
2016-Dec-08 20:33N 59°55' E 030°14'0 0.0
2016-Dec-08 19:33N 59°55' E 030°14'0 0.0
2016-Dec-08 18:33N 59°55' E 030°14'0 0.0
2016-Dec-08 17:33N 59°55' E 030°14'0 0.0
2016-Dec-08 16:33N 59°55' E 030°14'0 0.0
2016-Dec-08 15:33N 59°55' E 030°14'0 0.0
2016-Dec-08 14:33N 59°55' E 030°14'4 4.4
2016-Dec-08 13:33N 59°54' E 030°05'1210.9
2016-Dec-08 12:29N 59°59' E 029°44'0 0.1
2016-Dec-08 11:28N 59°59' E 029°43'0 0.0
2016-Dec-08 10:23N 59°59' E 029°43'  
2016-Dec-03 16:07N 59°59' E 029°44'3 1.1
2016-Dec-03 13:27N 59°56' E 029°41'3 0.8
2016-Dec-03 09:27N 59°60' E 029°42'0 0.0
2016-Dec-03 08:26N 59°60' E 029°42'16 8.6
2016-Dec-03 06:33N 59°53' E 030°12'2 1.6
2016-Dec-03 05:34N 59°55' E 030°14'0 0.0
2016-Dec-03 04:34N 59°55' E 030°14'0 0.0
2016-Dec-03 03:34N 59°55' E 030°14'0 0.0
2016-Dec-03 02:33N 59°55' E 030°14'0 0.0
2016-Dec-03 01:33N 59°55' E 030°14'0 0.0
2016-Dec-03 00:34N 59°55' E 030°14'0 0.0
2016-Dec-02 23:33N 59°55' E 030°14'0 0.0
2016-Dec-02 22:33N 59°55' E 030°14'0 0.0
2016-Dec-02 21:33N 59°55' E 030°14'0 0.0
2016-Dec-02 20:33N 59°55' E 030°14'0 0.0
2016-Dec-02 19:33N 59°55' E 030°14'0 0.0
2016-Dec-02 18:33N 59°55' E 030°14'0 0.0
2016-Dec-02 17:33N 59°55' E 030°14'0 0.0
2016-Dec-02 16:34N 59°55' E 030°14'0 0.0
2016-Dec-02 15:34N 59°55' E 030°14'0 0.0
2016-Dec-02 14:33N 59°55' E 030°14'0 0.0
2016-Dec-02 13:33N 59°55' E 030°14'0 0.0
2016-Dec-02 12:33N 59°55' E 030°14'0 0.0
2016-Dec-02 11:33N 59°55' E 030°14'0 0.0
2016-Dec-02 10:13N 59°55' E 030°14'0 0.0
2016-Dec-02 08:04N 59°55' E 030°14'0 0.0
2016-Dec-02 07:33N 59°55' E 030°14'0 0.0
2016-Dec-02 06:33N 59°55' E 030°14'0 0.0
2016-Dec-02 05:33N 59°55' E 030°14'0 0.0
2016-Dec-02 04:33N 59°55' E 030°14'0 0.0
2016-Dec-02 03:33N 59°55' E 030°14'0 0.0
2016-Dec-02 02:33N 59°55' E 030°14'0 0.0
2016-Dec-02 01:33N 59°55' E 030°14'0 0.0
2016-Dec-02 00:33N 59°55' E 030°14'0 0.0
2016-Dec-01 23:33N 59°55' E 030°14'0 0.0
2016-Dec-01 22:33N 59°55' E 030°14'0 0.0
2016-Dec-01 21:33N 59°55' E 030°14'0 0.0
2016-Dec-01 20:33N 59°55' E 030°14'0 0.0
2016-Dec-01 19:33N 59°55' E 030°14'0 0.0
2016-Dec-01 18:33N 59°55' E 030°14'0 0.0
2016-Dec-01 17:33N 59°55' E 030°14'0 0.0
2016-Dec-01 16:33N 59°55' E 030°14'0 0.1
2016-Dec-01 15:33N 59°55' E 030°14'0 0.1
2016-Dec-01 14:33N 59°55' E 030°14'0 0.0
2016-Dec-01 13:33N 59°55' E 030°14'0 0.0
2016-Dec-01 12:33N 59°55' E 030°14'0 0.0
2016-Dec-01 11:33N 59°55' E 030°14'0 0.0
2016-Dec-01 10:33N 59°55' E 030°14'0 0.0
2016-Dec-01 09:33N 59°55' E 030°14'0 0.0
2016-Dec-01 08:33N 59°55' E 030°14'0 0.1
2016-Dec-01 07:33N 59°55' E 030°13'0 0.0
2016-Dec-01 06:33N 59°55' E 030°13'0 0.0
2016-Dec-01 05:33N 59°55' E 030°13'0 0.0
2016-Dec-01 04:33N 59°55' E 030°13'0 0.0
2016-Dec-01 03:33N 59°55' E 030°13'0 0.0
2016-Dec-01 02:33N 59°55' E 030°13'1 1.3
2016-Dec-01 01:34N 59°53' E 030°12'8 8.1
2016-Dec-01 00:33N 59°56' E 029°57'7 6.7
2016-Nov-30 23:31N 59°56' E 029°43'1 0.0
2016-Nov-30 08:31N 59°56' E 029°42'  

Dump ship's entire track history